Main page
METAR-TAF:

METAR-TAF

Airports :

Norwich Airport

Norwich, England

latitude: 52-38N, longitude: 001-18E, elevation: 14 m

Current weather observation

The report was made 14 minutes ago, at 18:50 UTC
Wind 1 kt from the North/Northeast
Temperature 3°C
Humidity 87%
Pressure 1019 hPa
Visibility 10 km or more
Scattered clouds at a height of 3200 ft

METAR: EGSH 211850Z 02001KT 9999 SCT032 03/01 Q1019

Time: 19:04 (19:04 UTC)

Forecast

The report was made 2 hours and 4 minutes ago, at 17:00 UTC
Forecast valid from 21 at 18 UTC to 21 at 24 UTC
Wind 2 kt from variable directions
Visibility 10 km or more
Scattered clouds at a height of 3000 ft

TAF: EGSH 211700Z 2118/2124 VRB02KT 9999 SCT030

Weather observations and forecasts of more than 4000 airports (METAR and TAF reports).

The available stations are represented by yellow and red dots on the map.

Hover mouse over dot to see the name of the station.

Then click to see weather observations and forecasts.

To change the map : click on the green buttons with a black cross to zoom in, on the green button with a dash to zoom out, or on the green arrows for adjacent maps.


METAR-TAF: